sensor_id;sensor_type;location;lat;lon;timestamp;temperature;humidity
41447;DHT22;27185;52.040;4.490;2024-03-08T00:01:57;5.60;99.90
41447;DHT22;27185;52.040;4.490;2024-03-08T00:04:42;5.60;99.90
41447;DHT22;27185;52.040;4.490;2024-03-08T00:07:28;5.50;99.90
41447;DHT22;27185;52.040;4.490;2024-03-08T00:10:14;5.50;99.90
41447;DHT22;27185;52.040;4.490;2024-03-08T00:13:00;5.50;99.90
41447;DHT22;27185;52.040;4.490;2024-03-08T00:15:49;5.50;99.90
41447;DHT22;27185;52.040;4.490;2024-03-08T00:18:35;5.50;99.90
41447;DHT22;27185;52.040;4.490;2024-03-08T00:21:21;5.50;99.90
41447;DHT22;27185;52.040;4.490;2024-03-08T00:24:06;5.50;99.90
41447;DHT22;27185;52.040;4.490;2024-03-08T00:26:52;5.50;99.90
41447;DHT22;27185;52.040;4.490;2024-03-08T00:29:39;5.40;99.90
41447;DHT22;27185;52.040;4.490;2024-03-08T00:32:25;5.40;99.90
41447;DHT22;27185;52.040;4.490;2024-03-08T00:35:11;5.40;99.90
41447;DHT22;27185;52.040;4.490;2024-03-08T00:37:57;5.40;99.90
41447;DHT22;27185;52.040;4.490;2024-03-08T00:40:46;5.40;99.90
41447;DHT22;27185;52.040;4.490;2024-03-08T00:43:32;5.40;99.90
41447;DHT22;27185;52.040;4.490;2024-03-08T00:46:18;5.40;99.90
41447;DHT22;27185;52.040;4.490;2024-03-08T00:49:04;5.40;99.90
41447;DHT22;27185;52.040;4.490;2024-03-08T00:51:50;5.40;99.90
41447;DHT22;27185;52.040;4.490;2024-03-08T00:54:36;5.40;99.90
41447;DHT22;27185;52.040;4.490;2024-03-08T00:57:22;5.40;99.90
41447;DHT22;27185;52.040;4.490;2024-03-08T01:00:08;5.40;99.90
41447;DHT22;27185;52.040;4.490;2024-03-08T01:02:57;5.40;99.90
41447;DHT22;27185;52.040;4.490;2024-03-08T01:05:43;5.40;99.90
41447;DHT22;27185;52.040;4.490;2024-03-08T01:08:29;5.30;99.90
41447;DHT22;27185;52.040;4.490;2024-03-08T01:11:15;5.30;99.90
41447;DHT22;27185;52.040;4.490;2024-03-08T01:14:03;5.30;99.90
41447;DHT22;27185;52.040;4.490;2024-03-08T01:16:49;5.20;99.90
41447;DHT22;27185;52.040;4.490;2024-03-08T01:19:35;5.20;99.90
41447;DHT22;27185;52.040;4.490;2024-03-08T01:22:21;5.20;99.90
41447;DHT22;27185;52.040;4.490;2024-03-08T01:25:08;5.20;99.90
41447;DHT22;27185;52.040;4.490;2024-03-08T01:27:54;5.10;99.90
41447;DHT22;27185;52.040;4.490;2024-03-08T01:30:40;5.10;99.90
41447;DHT22;27185;52.040;4.490;2024-03-08T01:33:28;5.10;99.90
41447;DHT22;27185;52.040;4.490;2024-03-08T01:36:14;5.10;99.90
41447;DHT22;27185;52.040;4.490;2024-03-08T01:39:01;5.00;99.90
41447;DHT22;27185;52.040;4.490;2024-03-08T01:41:46;5.00;99.90
41447;DHT22;27185;52.040;4.490;2024-03-08T01:44:32;5.00;99.90
41447;DHT22;27185;52.040;4.490;2024-03-08T01:47:18;4.90;99.90
41447;DHT22;27185;52.040;4.490;2024-03-08T01:50:08;4.90;99.90
41447;DHT22;27185;52.040;4.490;2024-03-08T01:52:54;4.90;99.90
41447;DHT22;27185;52.040;4.490;2024-03-08T01:55:41;4.90;99.90
41447;DHT22;27185;52.040;4.490;2024-03-08T01:58:28;4.90;99.90
41447;DHT22;27185;52.040;4.490;2024-03-08T02:01:15;4.90;99.90
41447;DHT22;27185;52.040;4.490;2024-03-08T02:04:01;4.90;99.90
41447;DHT22;27185;52.040;4.490;2024-03-08T02:06:47;4.90;99.90
41447;DHT22;27185;52.040;4.490;2024-03-08T02:09:33;4.80;99.90
41447;DHT22;27185;52.040;4.490;2024-03-08T02:12:21;4.80;99.90
41447;DHT22;27185;52.040;4.490;2024-03-08T02:15:07;4.80;99.90
41447;DHT22;27185;52.040;4.490;2024-03-08T02:17:52;4.80;99.90
41447;DHT22;27185;52.040;4.490;2024-03-08T02:20:39;4.80;99.90
41447;DHT22;27185;52.040;4.490;2024-03-08T02:23:25;4.70;99.90
41447;DHT22;27185;52.040;4.490;2024-03-08T02:26:11;4.70;99.90
41447;DHT22;27185;52.040;4.490;2024-03-08T02:28:57;4.70;99.90
41447;DHT22;27185;52.040;4.490;2024-03-08T02:31:43;4.70;99.90
41447;DHT22;27185;52.040;4.490;2024-03-08T02:34:31;4.70;99.90
41447;DHT22;27185;52.040;4.490;2024-03-08T02:37:17;4.60;99.90
41447;DHT22;27185;52.040;4.490;2024-03-08T02:40:03;4.60;99.90
41447;DHT22;27185;52.040;4.490;2024-03-08T02:42:49;4.60;99.90
41447;DHT22;27185;52.040;4.490;2024-03-08T02:45:36;4.60;99.90
41447;DHT22;27185;52.040;4.490;2024-03-08T02:48:22;4.60;99.90
41447;DHT22;27185;52.040;4.490;2024-03-08T02:51:08;4.50;99.90
41447;DHT22;27185;52.040;4.490;2024-03-08T02:53:56;4.50;99.90
41447;DHT22;27185;52.040;4.490;2024-03-08T02:56:42;4.50;99.90
41447;DHT22;27185;52.040;4.490;2024-03-08T02:59:28;4.50;99.90
41447;DHT22;27185;52.040;4.490;2024-03-08T03:02:14;4.50;99.90
41447;DHT22;27185;52.040;4.490;2024-03-08T03:05:00;4.40;99.90
41447;DHT22;27185;52.040;4.490;2024-03-08T03:07:51;4.40;99.90
41447;DHT22;27185;52.040;4.490;2024-03-08T03:10:37;4.40;99.90
41447;DHT22;27185;52.040;4.490;2024-03-08T03:13:23;4.40;99.90
41447;DHT22;27185;52.040;4.490;2024-03-08T03:16:09;4.30;99.90
41447;DHT22;27185;52.040;4.490;2024-03-08T03:18:55;4.30;99.90
41447;DHT22;27185;52.040;4.490;2024-03-08T03:21:42;4.30;99.90
41447;DHT22;27185;52.040;4.490;2024-03-08T03:24:29;4.30;99.90
41447;DHT22;27185;52.040;4.490;2024-03-08T03:27:17;4.20;99.90
41447;DHT22;27185;52.040;4.490;2024-03-08T03:30:03;4.20;99.90
41447;DHT22;27185;52.040;4.490;2024-03-08T03:33:06;4.20;99.90
41447;DHT22;27185;52.040;4.490;2024-03-08T03:35:52;4.20;99.90
41447;DHT22;27185;52.040;4.490;2024-03-08T03:38:38;4.20;99.90
41447;DHT22;27185;52.040;4.490;2024-03-08T03:41:24;4.20;99.90
41447;DHT22;27185;52.040;4.490;2024-03-08T03:44:10;4.10;99.90
41447;DHT22;27185;52.040;4.490;2024-03-08T03:46:55;4.10;99.90
41447;DHT22;27185;52.040;4.490;2024-03-08T03:49:42;4.10;99.90
41447;DHT22;27185;52.040;4.490;2024-03-08T03:52:28;4.10;99.90
41447;DHT22;27185;52.040;4.490;2024-03-08T03:55:14;4.10;99.90
41447;DHT22;27185;52.040;4.490;2024-03-08T03:58:00;4.00;99.90
41447;DHT22;27185;52.040;4.490;2024-03-08T04:00:48;4.00;99.90
41447;DHT22;27185;52.040;4.490;2024-03-08T04:03:34;4.00;99.90
41447;DHT22;27185;52.040;4.490;2024-03-08T04:06:19;4.00;99.90
41447;DHT22;27185;52.040;4.490;2024-03-08T04:09:05;4.00;99.90
41447;DHT22;27185;52.040;4.490;2024-03-08T04:11:51;4.00;99.90
41447;DHT22;27185;52.040;4.490;2024-03-08T04:14:40;3.90;99.90
41447;DHT22;27185;52.040;4.490;2024-03-08T04:17:26;3.90;99.90
41447;DHT22;27185;52.040;4.490;2024-03-08T04:20:12;3.90;99.90
41447;DHT22;27185;52.040;4.490;2024-03-08T04:22:59;3.90;99.90
41447;DHT22;27185;52.040;4.490;2024-03-08T04:25:45;3.90;99.90
41447;DHT22;27185;52.040;4.490;2024-03-08T04:28:31;3.80;99.90
41447;DHT22;27185;52.040;4.490;2024-03-08T04:31:17;3.80;99.90
41447;DHT22;27185;52.040;4.490;2024-03-08T04:34:03;3.80;99.90
41447;DHT22;27185;52.040;4.490;2024-03-08T04:36:50;3.80;99.90
41447;DHT22;27185;52.040;4.490;2024-03-08T04:39:36;3.70;99.90
41447;DHT22;27185;52.040;4.490;2024-03-08T04:42:22;3.80;99.90
41447;DHT22;27185;52.040;4.490;2024-03-08T04:45:09;3.70;99.90
41447;DHT22;27185;52.040;4.490;2024-03-08T04:47:57;3.70;99.90
41447;DHT22;27185;52.040;4.490;2024-03-08T04:50:43;3.70;99.90
41447;DHT22;27185;52.040;4.490;2024-03-08T04:53:30;3.70;99.90
41447;DHT22;27185;52.040;4.490;2024-03-08T04:56:17;3.60;99.90
41447;DHT22;27185;52.040;4.490;2024-03-08T04:59:04;3.60;99.90
41447;DHT22;27185;52.040;4.490;2024-03-08T05:01:53;3.70;99.90
41447;DHT22;27185;52.040;4.490;2024-03-08T05:04:39;3.70;99.90
41447;DHT22;27185;52.040;4.490;2024-03-08T05:07:25;3.60;99.90
41447;DHT22;27185;52.040;4.490;2024-03-08T05:10:11;3.60;99.90
41447;DHT22;27185;52.040;4.490;2024-03-08T05:12:57;3.60;99.90
41447;DHT22;27185;52.040;4.490;2024-03-08T05:15:42;3.60;99.90
41447;DHT22;27185;52.040;4.490;2024-03-08T05:18:28;3.60;99.90
41447;DHT22;27185;52.040;4.490;2024-03-08T05:21:14;3.60;99.90
41447;DHT22;27185;52.040;4.490;2024-03-08T05:23:59;3.60;99.90
41447;DHT22;27185;52.040;4.490;2024-03-08T05:26:46;3.60;99.90
41447;DHT22;27185;52.040;4.490;2024-03-08T05:29:33;3.50;99.90
41447;DHT22;27185;52.040;4.490;2024-03-08T05:32:18;3.50;99.90
41447;DHT22;27185;52.040;4.490;2024-03-08T05:35:05;3.50;99.90
41447;DHT22;27185;52.040;4.490;2024-03-08T05:37:52;3.50;99.90
41447;DHT22;27185;52.040;4.490;2024-03-08T05:40:38;3.50;99.90
41447;DHT22;27185;52.040;4.490;2024-03-08T05:43:24;3.50;99.90
41447;DHT22;27185;52.040;4.490;2024-03-08T05:46:10;3.40;99.90
41447;DHT22;27185;52.040;4.490;2024-03-08T05:48:57;3.40;99.90
41447;DHT22;27185;52.040;4.490;2024-03-08T05:51:44;3.40;99.90
41447;DHT22;27185;52.040;4.490;2024-03-08T05:54:30;3.50;99.90
41447;DHT22;27185;52.040;4.490;2024-03-08T05:57:16;3.40;99.90
41447;DHT22;27185;52.040;4.490;2024-03-08T06:00:02;3.40;99.90
41447;DHT22;27185;52.040;4.490;2024-03-08T06:02:48;3.40;99.90
41447;DHT22;27185;52.040;4.490;2024-03-08T06:05:34;3.40;99.90
41447;DHT22;27185;52.040;4.490;2024-03-08T06:08:20;3.40;99.90
41447;DHT22;27185;52.040;4.490;2024-03-08T06:11:05;3.40;99.90
41447;DHT22;27185;52.040;4.490;2024-03-08T06:13:51;3.40;99.90
41447;DHT22;27185;52.040;4.490;2024-03-08T06:16:37;3.40;99.90
41447;DHT22;27185;52.040;4.490;2024-03-08T06:19:23;3.40;99.90
41447;DHT22;27185;52.040;4.490;2024-03-08T06:22:09;3.40;99.90
41447;DHT22;27185;52.040;4.490;2024-03-08T06:24:56;3.30;99.90
41447;DHT22;27185;52.040;4.490;2024-03-08T06:27:42;3.30;99.90
41447;DHT22;27185;52.040;4.490;2024-03-08T06:30:28;3.30;99.90
41447;DHT22;27185;52.040;4.490;2024-03-08T06:33:14;3.40;99.90
41447;DHT22;27185;52.040;4.490;2024-03-08T06:36:01;3.30;99.90
41447;DHT22;27185;52.040;4.490;2024-03-08T06:38:48;3.30;99.90
41447;DHT22;27185;52.040;4.490;2024-03-08T06:41:35;3.30;99.90
41447;DHT22;27185;52.040;4.490;2024-03-08T06:44:21;3.40;99.90
41447;DHT22;27185;52.040;4.490;2024-03-08T06:47:10;3.40;99.90
41447;DHT22;27185;52.040;4.490;2024-03-08T06:49:55;3.40;99.90
41447;DHT22;27185;52.040;4.490;2024-03-08T06:52:41;3.40;99.90
41447;DHT22;27185;52.040;4.490;2024-03-08T06:55:32;3.40;99.90
41447;DHT22;27185;52.040;4.490;2024-03-08T06:58:18;3.40;99.90
41447;DHT22;27185;52.040;4.490;2024-03-08T07:01:04;3.40;99.90
41447;DHT22;27185;52.040;4.490;2024-03-08T07:03:52;3.50;99.90
41447;DHT22;27185;52.040;4.490;2024-03-08T07:06:38;3.50;99.90
41447;DHT22;27185;52.040;4.490;2024-03-08T07:09:24;3.50;99.90
41447;DHT22;27185;52.040;4.490;2024-03-08T07:12:10;3.60;99.90
41447;DHT22;27185;52.040;4.490;2024-03-08T07:14:59;3.60;99.90
41447;DHT22;27185;52.040;4.490;2024-03-08T07:17:47;3.60;99.90
41447;DHT22;27185;52.040;4.490;2024-03-08T07:20:32;3.70;99.90
41447;DHT22;27185;52.040;4.490;2024-03-08T07:23:19;3.70;99.90
41447;DHT22;27185;52.040;4.490;2024-03-08T07:26:23;3.80;99.90
41447;DHT22;27185;52.040;4.490;2024-03-08T07:29:09;3.80;99.90
41447;DHT22;27185;52.040;4.490;2024-03-08T07:31:55;3.80;99.90
41447;DHT22;27185;52.040;4.490;2024-03-08T07:34:47;3.90;99.90
41447;DHT22;27185;52.040;4.490;2024-03-08T07:37:33;3.90;99.90
41447;DHT22;27185;52.040;4.490;2024-03-08T07:40:19;4.00;99.90
41447;DHT22;27185;52.040;4.490;2024-03-08T07:43:05;4.10;99.90
41447;DHT22;27185;52.040;4.490;2024-03-08T07:45:51;4.10;99.90
41447;DHT22;27185;52.040;4.490;2024-03-08T07:48:38;4.20;99.90
41447;DHT22;27185;52.040;4.490;2024-03-08T07:51:25;4.30;99.90
41447;DHT22;27185;52.040;4.490;2024-03-08T07:54:11;4.30;99.90
41447;DHT22;27185;52.040;4.490;2024-03-08T07:56:56;4.40;99.90
41447;DHT22;27185;52.040;4.490;2024-03-08T07:59:42;4.50;99.90
41447;DHT22;27185;52.040;4.490;2024-03-08T08:02:28;4.50;99.90
41447;DHT22;27185;52.040;4.490;2024-03-08T08:05:13;4.60;99.90
41447;DHT22;27185;52.040;4.490;2024-03-08T08:08:04;4.70;99.90
41447;DHT22;27185;52.040;4.490;2024-03-08T08:10:51;4.80;99.90
41447;DHT22;27185;52.040;4.490;2024-03-08T08:13:37;4.80;99.90
41447;DHT22;27185;52.040;4.490;2024-03-08T08:16:23;4.90;99.90
41447;DHT22;27185;52.040;4.490;2024-03-08T08:19:11;5.00;99.90
41447;DHT22;27185;52.040;4.490;2024-03-08T08:21:57;5.10;99.90
41447;DHT22;27185;52.040;4.490;2024-03-08T08:24:43;5.10;99.90
41447;DHT22;27185;52.040;4.490;2024-03-08T08:27:29;5.20;99.90
41447;DHT22;27185;52.040;4.490;2024-03-08T08:30:14;5.30;99.90
41447;DHT22;27185;52.040;4.490;2024-03-08T08:33:00;5.40;99.90
41447;DHT22;27185;52.040;4.490;2024-03-08T08:35:48;5.50;99.90
41447;DHT22;27185;52.040;4.490;2024-03-08T08:38:37;5.60;99.90
41447;DHT22;27185;52.040;4.490;2024-03-08T08:41:23;5.70;99.90
41447;DHT22;27185;52.040;4.490;2024-03-08T08:44:09;5.70;99.90
41447;DHT22;27185;52.040;4.490;2024-03-08T08:46:57;5.80;99.90
41447;DHT22;27185;52.040;4.490;2024-03-08T08:49:44;5.90;99.90
41447;DHT22;27185;52.040;4.490;2024-03-08T08:52:32;6.00;99.90
41447;DHT22;27185;52.040;4.490;2024-03-08T08:55:18;6.10;99.90
41447;DHT22;27185;52.040;4.490;2024-03-08T08:58:07;6.10;99.90
41447;DHT22;27185;52.040;4.490;2024-03-08T09:00:53;6.20;99.90
41447;DHT22;27185;52.040;4.490;2024-03-08T09:03:39;6.30;99.90
41447;DHT22;27185;52.040;4.490;2024-03-08T09:06:26;6.40;99.90
41447;DHT22;27185;52.040;4.490;2024-03-08T09:09:12;6.50;99.90
41447;DHT22;27185;52.040;4.490;2024-03-08T09:11:58;6.60;99.90
41447;DHT22;27185;52.040;4.490;2024-03-08T09:14:44;6.70;99.90
41447;DHT22;27185;52.040;4.490;2024-03-08T09:17:30;6.80;99.90
41447;DHT22;27185;52.040;4.490;2024-03-08T09:20:16;6.80;99.90
41447;DHT22;27185;52.040;4.490;2024-03-08T09:23:03;6.90;99.90
41447;DHT22;27185;52.040;4.490;2024-03-08T09:25:49;7.00;99.90
41447;DHT22;27185;52.040;4.490;2024-03-08T09:28:35;7.10;99.90
41447;DHT22;27185;52.040;4.490;2024-03-08T09:31:21;7.20;99.90
41447;DHT22;27185;52.040;4.490;2024-03-08T09:34:07;7.30;99.90
41447;DHT22;27185;52.040;4.490;2024-03-08T09:36:54;7.40;99.90
41447;DHT22;27185;52.040;4.490;2024-03-08T09:39:39;7.40;99.90
41447;DHT22;27185;52.040;4.490;2024-03-08T09:42:25;7.50;99.90
41447;DHT22;27185;52.040;4.490;2024-03-08T09:45:12;7.60;99.90
41447;DHT22;27185;52.040;4.490;2024-03-08T09:47:57;7.70;99.90
41447;DHT22;27185;52.040;4.490;2024-03-08T09:50:43;7.80;99.90
41447;DHT22;27185;52.040;4.490;2024-03-08T09:53:29;7.80;99.90
41447;DHT22;27185;52.040;4.490;2024-03-08T09:56:15;7.90;99.90
41447;DHT22;27185;52.040;4.490;2024-03-08T09:59:02;8.00;99.90
41447;DHT22;27185;52.040;4.490;2024-03-08T10:01:50;8.10;99.90
41447;DHT22;27185;52.040;4.490;2024-03-08T10:04:39;8.20;99.90
41447;DHT22;27185;52.040;4.490;2024-03-08T10:07:27;8.30;99.90
41447;DHT22;27185;52.040;4.490;2024-03-08T10:10:14;8.40;99.90
41447;DHT22;27185;52.040;4.490;2024-03-08T10:13:00;8.40;99.90
41447;DHT22;27185;52.040;4.490;2024-03-08T10:15:46;8.50;99.90
41447;DHT22;27185;52.040;4.490;2024-03-08T10:18:32;8.60;99.90
41447;DHT22;27185;52.040;4.490;2024-03-08T10:21:18;8.70;99.90
41447;DHT22;27185;52.040;4.490;2024-03-08T10:24:04;8.70;99.90
41447;DHT22;27185;52.040;4.490;2024-03-08T10:27:01;8.80;99.90
41447;DHT22;27185;52.040;4.490;2024-03-08T10:29:51;8.90;99.90
41447;DHT22;27185;52.040;4.490;2024-03-08T10:32:38;9.00;99.90
41447;DHT22;27185;52.040;4.490;2024-03-08T10:35:26;9.00;99.90
41447;DHT22;27185;52.040;4.490;2024-03-08T10:38:15;9.20;99.90
41447;DHT22;27185;52.040;4.490;2024-03-08T10:41:05;9.30;99.90
41447;DHT22;27185;52.040;4.490;2024-03-08T10:44:10;9.40;99.90
41447;DHT22;27185;52.040;4.490;2024-03-08T10:47:21;9.40;99.90
41447;DHT22;27185;52.040;4.490;2024-03-08T10:50:19;9.60;99.90
41447;DHT22;27185;52.040;4.490;2024-03-08T10:53:14;9.70;99.90
41447;DHT22;27185;52.040;4.490;2024-03-08T10:56:00;9.80;99.90
41447;DHT22;27185;52.040;4.490;2024-03-08T10:58:48;9.80;99.90
41447;DHT22;27185;52.040;4.490;2024-03-08T11:01:34;9.90;99.90
41447;DHT22;27185;52.040;4.490;2024-03-08T11:04:20;9.90;99.90
41447;DHT22;27185;52.040;4.490;2024-03-08T11:07:08;10.00;99.90
41447;DHT22;27185;52.040;4.490;2024-03-08T11:10:03;10.10;99.90
41447;DHT22;27185;52.040;4.490;2024-03-08T11:12:52;10.20;99.90
41447;DHT22;27185;52.040;4.490;2024-03-08T11:15:39;10.20;99.90
41447;DHT22;27185;52.040;4.490;2024-03-08T11:18:26;10.40;99.90
41447;DHT22;27185;52.040;4.490;2024-03-08T11:21:11;10.50;99.90
41447;DHT22;27185;52.040;4.490;2024-03-08T11:24:07;10.60;99.90
41447;DHT22;27185;52.040;4.490;2024-03-08T11:26:57;10.70;99.90
41447;DHT22;27185;52.040;4.490;2024-03-08T11:29:45;10.80;99.90
41447;DHT22;27185;52.040;4.490;2024-03-08T11:32:30;10.90;99.90
41447;DHT22;27185;52.040;4.490;2024-03-08T11:35:21;10.90;99.90
41447;DHT22;27185;52.040;4.490;2024-03-08T11:38:09;11.00;99.90
41447;DHT22;27185;52.040;4.490;2024-03-08T11:40:57;11.10;99.90
41447;DHT22;27185;52.040;4.490;2024-03-08T11:43:42;11.20;99.90
41447;DHT22;27185;52.040;4.490;2024-03-08T11:46:28;11.50;99.90
41447;DHT22;27185;52.040;4.490;2024-03-08T11:49:14;11.90;99.90
41447;DHT22;27185;52.040;4.490;2024-03-08T11:52:00;12.40;99.90
41447;DHT22;27185;52.040;4.490;2024-03-08T11:54:52;12.90;99.90
41447;DHT22;27185;52.040;4.490;2024-03-08T11:57:42;13.50;99.90
41447;DHT22;27185;52.040;4.490;2024-03-08T12:00:28;13.90;99.80
41447;DHT22;27185;52.040;4.490;2024-03-08T12:03:20;14.20;98.60
41447;DHT22;27185;52.040;4.490;2024-03-08T12:06:06;14.60;98.50
41447;DHT22;27185;52.040;4.490;2024-03-08T12:08:54;14.90;98.00
41447;DHT22;27185;52.040;4.490;2024-03-08T12:11:40;15.10;96.00
41447;DHT22;27185;52.040;4.490;2024-03-08T12:14:25;15.30;95.20
41447;DHT22;27185;52.040;4.490;2024-03-08T12:17:11;15.50;95.20
41447;DHT22;27185;52.040;4.490;2024-03-08T12:19:57;15.70;96.10
41447;DHT22;27185;52.040;4.490;2024-03-08T12:22:57;15.90;95.90
41447;DHT22;27185;52.040;4.490;2024-03-08T12:25:46;16.10;95.90
41447;DHT22;27185;52.040;4.490;2024-03-08T12:28:33;16.30;95.90
41447;DHT22;27185;52.040;4.490;2024-03-08T12:31:22;16.40;94.50
41447;DHT22;27185;52.040;4.490;2024-03-08T12:34:07;16.60;94.50
41447;DHT22;27185;52.040;4.490;2024-03-08T12:36:55;16.70;94.30
41447;DHT22;27185;52.040;4.490;2024-03-08T12:39:41;16.60;91.40
41447;DHT22;27185;52.040;4.490;2024-03-08T12:42:26;16.70;92.60
41447;DHT22;27185;52.040;4.490;2024-03-08T12:45:13;16.70;93.30
41447;DHT22;27185;52.040;4.490;2024-03-08T12:47:58;16.80;93.40
41447;DHT22;27185;52.040;4.490;2024-03-08T12:50:45;16.90;92.40
41447;DHT22;27185;52.040;4.490;2024-03-08T12:53:33;16.90;92.50
41447;DHT22;27185;52.040;4.490;2024-03-08T12:56:32;17.10;92.30
41447;DHT22;27185;52.040;4.490;2024-03-08T12:59:19;17.10;91.90
41447;DHT22;27185;52.040;4.490;2024-03-08T13:02:05;17.20;92.70
41447;DHT22;27185;52.040;4.490;2024-03-08T13:04:52;17.20;92.60
41447;DHT22;27185;52.040;4.490;2024-03-08T13:07:43;17.30;92.00
41447;DHT22;27185;52.040;4.490;2024-03-08T13:10:32;17.20;90.60
41447;DHT22;27185;52.040;4.490;2024-03-08T13:13:17;17.10;90.10
41447;DHT22;27185;52.040;4.490;2024-03-08T13:16:03;17.10;90.70
41447;DHT22;27185;52.040;4.490;2024-03-08T13:18:53;17.10;90.90
41447;DHT22;27185;52.040;4.490;2024-03-08T13:21:39;17.00;91.10
41447;DHT22;27185;52.040;4.490;2024-03-08T13:24:24;17.00;90.70
41447;DHT22;27185;52.040;4.490;2024-03-08T13:27:10;17.00;90.60
41447;DHT22;27185;52.040;4.490;2024-03-08T13:30:06;16.90;90.30
41447;DHT22;27185;52.040;4.490;2024-03-08T13:32:53;16.90;90.30
41447;DHT22;27185;52.040;4.490;2024-03-08T13:35:39;16.90;90.50
41447;DHT22;27185;52.040;4.490;2024-03-08T13:38:26;17.00;90.80
41447;DHT22;27185;52.040;4.490;2024-03-08T13:41:12;17.00;91.00
41447;DHT22;27185;52.040;4.490;2024-03-08T13:43:59;17.10;90.00
41447;DHT22;27185;52.040;4.490;2024-03-08T13:46:47;17.20;90.30
41447;DHT22;27185;52.040;4.490;2024-03-08T13:49:32;17.10;88.60
41447;DHT22;27185;52.040;4.490;2024-03-08T13:52:18;17.00;88.60
41447;DHT22;27185;52.040;4.490;2024-03-08T13:55:05;17.00;88.90
41447;DHT22;27185;52.040;4.490;2024-03-08T13:57:51;17.00;89.40
41447;DHT22;27185;52.040;4.490;2024-03-08T14:00:37;17.10;90.50
41447;DHT22;27185;52.040;4.490;2024-03-08T14:03:23;17.10;90.00
41447;DHT22;27185;52.040;4.490;2024-03-08T14:06:10;17.20;90.40
41447;DHT22;27185;52.040;4.490;2024-03-08T14:08:56;17.20;89.00
41447;DHT22;27185;52.040;4.490;2024-03-08T14:11:43;17.20;88.70
41447;DHT22;27185;52.040;4.490;2024-03-08T14:14:34;17.20;88.10
41447;DHT22;27185;52.040;4.490;2024-03-08T14:17:20;17.30;90.40
41447;DHT22;27185;52.040;4.490;2024-03-08T14:20:06;17.30;90.20
41447;DHT22;27185;52.040;4.490;2024-03-08T14:22:54;17.40;90.70
41447;DHT22;27185;52.040;4.490;2024-03-08T14:25:40;17.40;89.80
41447;DHT22;27185;52.040;4.490;2024-03-08T14:28:26;17.50;90.70
41447;DHT22;27185;52.040;4.490;2024-03-08T14:31:14;17.50;87.80
41447;DHT22;27185;52.040;4.490;2024-03-08T14:34:04;17.50;89.00
41447;DHT22;27185;52.040;4.490;2024-03-08T14:36:50;17.50;88.40
41447;DHT22;27185;52.040;4.490;2024-03-08T14:39:35;17.40;87.50
41447;DHT22;27185;52.040;4.490;2024-03-08T14:42:21;17.30;86.20
41447;DHT22;27185;52.040;4.490;2024-03-08T14:45:07;17.50;88.10
41447;DHT22;27185;52.040;4.490;2024-03-08T14:47:54;17.60;88.10
41447;DHT22;27185;52.040;4.490;2024-03-08T14:50:40;17.70;87.60
41447;DHT22;27185;52.040;4.490;2024-03-08T14:53:26;17.70;86.70
41447;DHT22;27185;52.040;4.490;2024-03-08T14:56:13;17.60;87.10
41447;DHT22;27185;52.040;4.490;2024-03-08T14:59:02;17.50;86.70
41447;DHT22;27185;52.040;4.490;2024-03-08T15:01:47;17.40;86.20
41447;DHT22;27185;52.040;4.490;2024-03-08T15:04:33;17.30;86.40
41447;DHT22;27185;52.040;4.490;2024-03-08T15:07:21;17.20;86.50
41447;DHT22;27185;52.040;4.490;2024-03-08T15:10:07;17.10;86.60
41447;DHT22;27185;52.040;4.490;2024-03-08T15:12:56;17.10;87.50
41447;DHT22;27185;52.040;4.490;2024-03-08T15:15:44;17.00;86.50
41447;DHT22;27185;52.040;4.490;2024-03-08T15:18:30;16.80;85.40
41447;DHT22;27185;52.040;4.490;2024-03-08T15:21:19;16.80;85.30
41447;DHT22;27185;52.040;4.490;2024-03-08T15:24:05;16.70;86.50
41447;DHT22;27185;52.040;4.490;2024-03-08T15:26:55;16.70;87.90
41447;DHT22;27185;52.040;4.490;2024-03-08T15:29:42;16.70;87.70
41447;DHT22;27185;52.040;4.490;2024-03-08T15:32:33;16.60;86.10
41447;DHT22;27185;52.040;4.490;2024-03-08T15:35:18;16.70;86.80
41447;DHT22;27185;52.040;4.490;2024-03-08T15:38:04;16.50;86.30
41447;DHT22;27185;52.040;4.490;2024-03-08T15:40:50;16.50;87.10
41447;DHT22;27185;52.040;4.490;2024-03-08T15:43:36;16.40;86.30
41447;DHT22;27185;52.040;4.490;2024-03-08T15:46:22;16.40;87.40
41447;DHT22;27185;52.040;4.490;2024-03-08T15:49:08;16.40;87.10
41447;DHT22;27185;52.040;4.490;2024-03-08T15:51:54;16.30;86.60
41447;DHT22;27185;52.040;4.490;2024-03-08T15:54:40;16.30;86.70
41447;DHT22;27185;52.040;4.490;2024-03-08T15:57:28;16.30;87.70
41447;DHT22;27185;52.040;4.490;2024-03-08T16:00:19;16.20;88.10
41447;DHT22;27185;52.040;4.490;2024-03-08T16:03:19;16.20;88.30
41447;DHT22;27185;52.040;4.490;2024-03-08T16:06:05;16.20;89.70
41447;DHT22;27185;52.040;4.490;2024-03-08T16:08:51;16.10;89.80
41447;DHT22;27185;52.040;4.490;2024-03-08T16:11:37;16.10;90.10
41447;DHT22;27185;52.040;4.490;2024-03-08T16:14:24;16.10;89.70
41447;DHT22;27185;52.040;4.490;2024-03-08T16:17:10;15.90;87.70
41447;DHT22;27185;52.040;4.490;2024-03-08T16:19:56;15.80;87.80
41447;DHT22;27185;52.040;4.490;2024-03-08T16:22:44;15.60;88.70
41447;DHT22;27185;52.040;4.490;2024-03-08T16:25:31;15.40;89.30
41447;DHT22;27185;52.040;4.490;2024-03-08T16:28:17;15.10;88.80
41447;DHT22;27185;52.040;4.490;2024-03-08T16:31:04;14.80;89.00
41447;DHT22;27185;52.040;4.490;2024-03-08T16:33:52;14.50;89.70
41447;DHT22;27185;52.040;4.490;2024-03-08T16:36:39;14.20;90.00
41447;DHT22;27185;52.040;4.490;2024-03-08T16:39:25;13.80;90.10
41447;DHT22;27185;52.040;4.490;2024-03-08T16:42:14;13.60;90.60
41447;DHT22;27185;52.040;4.490;2024-03-08T16:44:59;13.40;90.90
41447;DHT22;27185;52.040;4.490;2024-03-08T16:47:46;13.20;91.30
41447;DHT22;27185;52.040;4.490;2024-03-08T16:50:32;13.00;91.70
41447;DHT22;27185;52.040;4.490;2024-03-08T16:53:21;12.80;91.90
41447;DHT22;27185;52.040;4.490;2024-03-08T16:56:06;12.70;92.30
41447;DHT22;27185;52.040;4.490;2024-03-08T16:58:52;12.50;92.40
41447;DHT22;27185;52.040;4.490;2024-03-08T17:01:38;12.40;92.60
41447;DHT22;27185;52.040;4.490;2024-03-08T17:04:26;12.30;92.90
41447;DHT22;27185;52.040;4.490;2024-03-08T17:07:12;12.10;93.10
41447;DHT22;27185;52.040;4.490;2024-03-08T17:09:58;12.00;93.20
41447;DHT22;27185;52.040;4.490;2024-03-08T17:12:47;11.90;93.50
41447;DHT22;27185;52.040;4.490;2024-03-08T17:15:38;11.80;93.80
41447;DHT22;27185;52.040;4.490;2024-03-08T17:18:24;11.70;94.00
41447;DHT22;27185;52.040;4.490;2024-03-08T17:21:11;11.60;94.20
41447;DHT22;27185;52.040;4.490;2024-03-08T17:23:59;11.50;94.40
41447;DHT22;27185;52.040;4.490;2024-03-08T17:26:46;11.50;94.70
41447;DHT22;27185;52.040;4.490;2024-03-08T17:29:33;11.40;94.90
41447;DHT22;27185;52.040;4.490;2024-03-08T17:32:19;11.30;95.10
41447;DHT22;27185;52.040;4.490;2024-03-08T17:35:05;11.20;95.30
41447;DHT22;27185;52.040;4.490;2024-03-08T17:37:56;11.10;95.50
41447;DHT22;27185;52.040;4.490;2024-03-08T17:40:43;11.00;95.70
41447;DHT22;27185;52.040;4.490;2024-03-08T17:43:29;11.00;96.00
41447;DHT22;27185;52.040;4.490;2024-03-08T17:46:15;10.90;96.20